Time;durP1;ratioP1;P1;durP2;ratioP2;P2;SDS_P1;SDS_P2;PMS_P1;PMS_P2;Temp;Humidity;BMP_temperature;BMP_pressure;BME280_temperature;BME280_humidity;BME280_pressure;Samples;Min_cycle;Max_cycle;Signal;HPM_P1;HPM_P2
2023/01/16 00:00:15;;;;;;;5.63;1.40;;;;;;;1.20;100.00;94630.00;5092645;28;24461;-73
2023/01/16 00:02:43;;;;;;;4.82;1.27;;;;;;;1.28;100.00;94622.84;5104387;28;24437;-72
2023/01/16 00:05:09;;;;;;;2.17;1.05;;;;;;;1.23;100.00;94624.78;5099487;28;24787;-73
2023/01/16 00:07:36;;;;;;;4.72;1.02;;;;;;;1.24;100.00;94625.59;5096549;28;24793;-72
2023/01/16 00:10:03;;;;;;;4.70;1.17;;;;;;;1.26;100.00;94617.00;5093592;28;24445;-73
2023/01/16 00:12:29;;;;;;;5.03;1.75;;;;;;;1.37;100.00;94606.28;5101817;28;24518;-72
2023/01/16 00:14:55;;;;;;;5.05;1.50;;;;;;;1.36;100.00;94602.06;5090104;28;24434;-72
2023/01/16 00:17:22;;;;;;;3.60;1.40;;;;;;;1.38;100.00;94601.13;5094689;28;24441;-72
2023/01/16 00:19:50;;;;;;;2.60;1.02;;;;;;;1.37;100.00;94593.53;5092663;28;24453;-73
2023/01/16 00:22:16;;;;;;;3.03;1.20;;;;;;;1.39;100.00;94591.75;5104160;28;24455;-73
2023/01/16 00:24:43;;;;;;;4.07;1.27;;;;;;;1.50;100.00;94586.97;5103020;28;24433;-73
2023/01/16 00:27:09;;;;;;;6.38;1.50;;;;;;;1.74;100.00;94590.09;5098550;28;24519;-71
2023/01/16 00:29:36;;;;;;;5.53;1.15;;;;;;;1.88;100.00;94584.34;5086132;28;24433;-72
2023/01/16 00:32:02;;;;;;;2.45;1.00;;;;;;;1.65;100.00;94581.16;5099290;28;24441;-73
2023/01/16 00:34:29;;;;;;;5.05;1.52;;;;;;;1.51;100.00;94567.38;5101079;28;24442;-72
2023/01/16 00:36:57;;;;;;;5.55;1.35;;;;;;;1.57;100.00;94562.81;5097252;28;25054;-73
2023/01/16 00:39:23;;;;;;;4.03;1.10;;;;;;;1.75;100.00;94571.34;5091403;28;24440;-73
2023/01/16 00:41:50;;;;;;;4.22;1.20;;;;;;;1.75;100.00;94575.63;5098974;28;24438;-72
2023/01/16 00:44:17;;;;;;;3.38;1.02;;;;;;;1.66;100.00;94557.25;5090119;28;24982;-72
2023/01/16 00:46:43;;;;;;;3.83;1.10;;;;;;;1.94;100.00;94554.22;5094969;28;24484;-73
2023/01/16 00:49:09;;;;;;;3.40;1.13;;;;;;;1.80;100.00;94546.41;5092883;28;24436;-73
2023/01/16 00:51:36;;;;;;;2.85;1.00;;;;;;;1.64;100.00;94532.75;5101276;28;24426;-73
2023/01/16 00:54:04;;;;;;;3.72;1.02;;;;;;;1.58;100.00;94533.84;5099902;28;25010;-73
2023/01/16 00:56:30;;;;;;;4.55;1.17;;;;;;;1.55;100.00;94530.59;5100090;28;24433;-72
2023/01/16 00:58:57;;;;;;;3.80;1.20;;;;;;;1.58;100.00;94523.63;5090369;28;24446;-73
2023/01/16 01:01:23;;;;;;;6.07;1.40;;;;;;;1.50;100.00;94517.25;5102569;28;24450;-73
2023/01/16 01:03:50;;;;;;;3.58;1.17;;;;;;;1.52;100.00;94516.28;5100198;28;24446;-73
2023/01/16 01:06:16;;;;;;;3.88;1.13;;;;;;;1.43;100.00;94514.97;5102264;28;24425;-73
2023/01/16 01:08:43;;;;;;;6.30;0.95;;;;;;;1.49;100.00;94505.41;5085096;28;25003;-72
2023/01/16 01:11:13;;;;;;;7.47;1.08;;;;;;;1.56;100.00;94499.06;5094309;28;24430;-72
2023/01/16 01:13:40;;;;;;;4.47;1.08;;;;;;;1.50;100.00;94496.84;5099645;28;24469;-73
2023/01/16 01:16:08;;;;;;;3.90;1.10;;;;;;;1.61;100.00;94485.22;5101204;28;24473;-71
2023/01/16 01:18:34;;;;;;;4.30;1.20;;;;;;;1.49;100.00;94483.25;5091869;28;24430;-73
2023/01/16 01:21:02;;;;;;;5.43;0.93;;;;;;;1.52;100.00;94472.06;5102168;28;24453;-71
2023/01/16 01:23:28;;;;;;;3.25;1.00;;;;;;;1.47;100.00;94468.91;5100194;28;24437;-73
2023/01/16 01:25:55;;;;;;;6.18;1.20;;;;;;;1.61;100.00;94471.63;5096650;28;24437;-73
2023/01/16 01:28:23;;;;;;;3.40;1.00;;;;;;;1.34;100.00;94472.06;5091675;28;24541;-73
2023/01/16 01:30:49;;;;;;;4.60;0.90;;;;;;;1.30;100.00;94474.81;5101725;28;24823;-73
2023/01/16 01:33:16;;;;;;;2.72;0.88;;;;;;;1.21;100.00;94474.34;5102413;28;24440;-72
2023/01/16 01:35:42;;;;;;;6.70;1.20;;;;;;;1.17;100.00;94467.75;5096611;27;24448;-73
2023/01/16 01:38:08;;;;;;;2.80;0.88;;;;;;;1.29;100.00;94470.63;5095144;28;24437;-73
2023/01/16 01:40:35;;;;;;;4.75;1.30;;;;;;;1.14;100.00;94462.78;5099496;28;24452;-73
2023/01/16 01:43:02;;;;;;;2.60;1.05;;;;;;;1.02;100.00;94467.66;5098441;28;24457;-72
2023/01/16 01:45:31;;;;;;;3.72;1.00;;;;;;;1.00;100.00;94464.31;5099390;28;24983;-73
2023/01/16 01:48:04;;;;;;;4.88;1.10;;;;;;;0.90;100.00;94448.66;5093160;28;24441;-72
2023/01/16 01:50:38;;;;;;;3.95;1.10;;;;;;;0.82;100.00;94446.47;5100175;28;24429;-72
2023/01/16 01:53:09;;;;;;;2.78;0.90;;;;;;;0.84;100.00;94433.63;5100458;28;24984;-73
2023/01/16 01:55:38;;;;;;;5.00;1.20;;;;;;;0.81;100.00;94418.47;5094480;28;24441;-73
2023/01/16 01:58:05;;;;;;;3.17;0.93;;;;;;;0.80;100.00;94409.19;5090449;28;24438;-72
2023/01/16 02:00:33;;;;;;;2.50;0.88;;;;;;;0.77;100.00;94411.88;5099239;27;25061;-72
2023/01/16 02:03:05;;;;;;;2.17;0.88;;;;;;;0.83;100.00;94403.94;5092594;28;24445;-73
2023/01/16 02:05:36;;;;;;;4.43;1.23;;;;;;;0.72;100.00;94392.53;5097111;28;24437;-73
2023/01/16 02:08:05;;;;;;;4.35;1.00;;;;;;;0.73;100.00;94388.25;5092497;28;24441;-72
2023/01/16 02:10:38;;;;;;;3.67;1.10;;;;;;;0.71;100.00;94388.34;5090956;28;24797;-72
2023/01/16 02:13:05;;;;;;;3.63;0.93;;;;;;;0.72;100.00;94389.16;5093546;28;24800;-73
2023/01/16 02:15:33;;;;;;;6.80;1.35;;;;;;;0.77;100.00;94381.28;5094839;28;24994;-72
2023/01/16 02:20:54;;;;;;;3.47;1.10;;;;;;;0.81;100.00;94357.31;5099995;28;24449;-71
2023/01/16 02:23:53;;;;;;;2.70;1.13;;;;;;;0.87;100.00;94362.13;5094679;28;24787;-72
2023/01/16 02:26:51;;;;;;;4.10;1.13;;;;;;;0.89;100.00;94345.03;5085446;28;24797;-71
2023/01/16 02:29:43;;;;;;;4.38;1.20;;;;;;;0.93;100.00;94344.00;5091131;28;24441;-71
2023/01/16 02:32:26;;;;;;;2.23;0.70;;;;;;;0.99;100.00;94332.66;5100032;28;24445;-71
2023/01/16 02:35:09;;;;;;;3.28;1.02;;;;;;;1.20;100.00;94329.91;5076510;28;24488;-72
2023/01/16 02:37:44;;;;;;;2.50;0.93;;;;;;;1.29;100.00;94317.59;5089492;28;25023;-72
2023/01/16 02:40:24;;;;;;;2.75;1.05;;;;;;;1.23;100.00;94315.34;5101162;28;24481;-71
2023/01/16 02:42:59;;;;;;;2.97;1.13;;;;;;;1.12;100.00;94303.97;5095332;27;24441;-74
2023/01/16 02:45:32;;;;;;;4.15;0.80;;;;;;;1.00;100.00;94299.44;5080936;28;24441;-74
2023/01/16 02:48:09;;;;;;;3.15;1.10;;;;;;;1.15;100.00;94291.06;5085971;28;24435;-74
2023/01/16 02:50:43;;;;;;;4.25;1.20;;;;;;;1.15;100.00;94283.41;5101261;28;24432;-74
2023/01/16 02:53:17;;;;;;;5.50;1.33;;;;;;;1.11;100.00;94281.91;5087827;28;24551;-74
2023/01/16 02:55:48;;;;;;;2.60;0.95;;;;;;;1.14;100.00;94269.00;5084049;28;25031;-74
2023/01/16 02:58:18;;;;;;;4.82;1.00;;;;;;;1.34;100.00;94255.25;5087588;28;24440;-74
2023/01/16 03:00:51;;;;;;;3.40;0.93;;;;;;;1.33;100.00;94252.75;5095152;28;24473;-71
2023/01/16 03:03:36;;;;;;;2.97;1.08;;;;;;;1.35;100.00;94235.66;5093881;28;24522;-72
2023/01/16 03:06:14;;;;;;;3.22;0.90;;;;;;;1.25;100.00;94244.69;5089097;28;24437;-72
2023/01/16 03:08:50;;;;;;;3.10;0.73;;;;;;;1.37;100.00;94244.03;5101075;28;24440;-71
2023/01/16 03:11:23;;;;;;;3.83;1.08;;;;;;;1.26;100.00;94234.41;5083684;28;25009;-72
2023/01/16 03:14:16;;;;;;;3.23;1.13;;;;;;;1.25;100.00;94225.09;5085647;28;24439;-72
2023/01/16 03:16:53;;;;;;;1.80;0.80;;;;;;;1.29;100.00;94218.94;5097072;28;24440;-72
2023/01/16 03:19:33;;;;;;;3.20;1.00;;;;;;;1.27;100.00;94215.66;5094011;28;24522;-71
2023/01/16 03:22:11;;;;;;;2.25;0.80;;;;;;;1.28;100.00;94204.53;5097995;28;24453;-72
2023/01/16 03:24:55;;;;;;;3.05;0.85;;;;;;;1.25;100.00;94199.59;5091217;28;24796;-72
2023/01/16 03:27:32;;;;;;;4.50;0.90;;;;;;;1.30;100.00;94181.50;5094115;28;24441;-72
2023/01/16 03:30:07;;;;;;;2.80;0.85;;;;;;;1.41;100.00;94172.41;5096218;28;24442;-72
2023/01/16 03:32:40;;;;;;;2.40;0.73;;;;;;;1.53;100.00;94170.09;5098179;28;24446;-71
2023/01/16 03:35:13;;;;;;;2.88;0.82;;;;;;;1.66;100.00;94169.34;5088396;28;24445;-72
2023/01/16 03:37:45;;;;;;;2.63;0.70;;;;;;;1.59;100.00;94162.09;5099287;28;24437;-72
2023/01/16 03:40:16;;;;;;;6.20;1.05;;;;;;;1.57;100.00;94149.44;5093134;28;24433;-72
2023/01/16 03:42:49;;;;;;;3.33;0.90;;;;;;;1.69;100.00;94148.78;5088795;28;24995;-72
2023/01/16 03:45:21;;;;;;;3.58;0.85;;;;;;;1.63;100.00;94131.25;5079906;28;24434;-72
2023/01/16 03:47:53;;;;;;;2.17;0.70;;;;;;;1.63;100.00;94131.25;5095373;28;24430;-72
2023/01/16 03:50:22;;;;;;;2.28;0.77;;;;;;;1.60;100.00;94125.50;5070940;28;24435;-71
2023/01/16 03:52:53;;;;;;;2.53;0.80;;;;;;;1.69;100.00;94117.34;5085245;28;24523;-72
2023/01/16 03:55:25;;;;;;;4.00;1.15;;;;;;;1.67;100.00;94109.78;5086643;28;24464;-71
2023/01/16 03:57:58;;;;;;;2.05;0.88;;;;;;;1.62;100.00;94100.72;5089298;28;24445;-72
2023/01/16 04:00:29;;;;;;;2.80;0.90;;;;;;;1.63;100.00;94097.25;5075307;28;24524;-72
2023/01/16 04:03:02;;;;;;;3.37;0.80;;;;;;;1.60;100.00;94088.03;5090714;28;24438;-71
2023/01/16 04:05:35;;;;;;;3.40;1.10;;;;;;;1.58;100.00;94081.38;5100706;28;24803;-71
2023/01/16 04:08:05;;;;;;;3.45;1.00;;;;;;;1.51;100.00;94077.50;5086551;28;24438;-72
2023/01/16 04:10:35;;;;;;;3.30;0.80;;;;;;;1.46;100.00;94065.00;5078471;28;24466;-71
2023/01/16 04:13:06;;;;;;;2.65;0.80;;;;;;;1.67;100.00;94063.84;5096469;28;24828;-72
2023/01/16 04:15:35;;;;;;;4.65;1.20;;;;;;;1.60;100.00;94059.16;5096036;28;24979;-72
2023/01/16 04:18:01;;;;;;;2.13;0.88;;;;;;;1.64;100.00;94043.59;5085707;28;24437;-72
2023/01/16 04:20:30;;;;;;;3.45;1.00;;;;;;;1.64;100.00;94043.59;5088893;28;24995;-72
2023/01/16 04:22:57;;;;;;;3.83;0.90;;;;;;;1.66;100.00;94040.94;5102024;28;24991;-72
2023/01/16 04:25:24;;;;;;;1.95;0.80;;;;;;;1.69;100.00;94036.47;5101593;28;24434;-71
2023/01/16 04:27:50;;;;;;;3.03;1.20;;;;;;;1.69;100.00;94033.13;5083768;28;24438;-72
2023/01/16 04:30:17;;;;;;;1.85;0.90;;;;;;;1.78;100.00;94017.31;5097109;28;24446;-71
2023/01/16 04:32:44;;;;;;;2.72;0.73;;;;;;;1.74;100.00;93997.13;5086220;28;24438;-72
2023/01/16 04:35:11;;;;;;;3.05;0.90;;;;;;;1.88;100.00;93995.41;5102261;28;24436;-71
2023/01/16 04:37:39;;;;;;;2.60;0.95;;;;;;;1.72;100.00;93986.19;5090072;28;24433;-71
2023/01/16 04:40:08;;;;;;;1.00;0.60;;;;;;;1.73;100.00;93970.78;5103199;28;24437;-71
2023/01/16 04:42:35;;;;;;;4.83;0.83;;;;;;;1.72;100.00;93970.88;5092110;28;24545;-72
2023/01/16 04:45:01;;;;;;;2.65;0.80;;;;;;;1.66;100.00;93956.72;5094518;28;24434;-71
2023/01/16 04:47:28;;;;;;;3.20;1.00;;;;;;;1.55;100.00;93948.84;5092534;28;24433;-71
2023/01/16 04:49:54;;;;;;;2.53;0.82;;;;;;;1.49;100.00;93933.91;5101281;28;24445;-71
2023/01/16 04:52:21;;;;;;;3.83;1.08;;;;;;;1.42;100.00;93930.88;5103663;28;24434;-71
2023/01/16 04:54:48;;;;;;;2.40;0.95;;;;;;;1.43;100.00;93933.34;5098729;28;24438;-71
2023/01/16 04:57:15;;;;;;;5.50;0.90;;;;;;;1.39;100.00;93910.66;5085731;28;24446;-71
2023/01/16 04:59:41;;;;;;;3.57;0.87;;;;;;;1.49;100.00;93916.06;5100037;28;24430;-72
2023/01/16 05:02:08;;;;;;;8.20;0.90;;;;;;;1.24;100.00;93898.78;5081127;28;24453;-71
2023/01/16 05:04:34;;;;;;;3.28;1.02;;;;;;;1.17;100.00;93899.09;5092120;28;24437;-71
2023/01/16 05:07:00;;;;;;;2.05;1.02;;;;;;;1.16;100.00;93887.28;5092526;28;24443;-71
2023/01/16 05:09:27;;;;;;;3.83;0.73;;;;;;;1.10;100.00;93882.50;5098725;28;24441;-71
2023/01/16 05:11:55;;;;;;;3.67;1.23;;;;;;;1.10;100.00;93879.97;5094306;28;24426;-73
2023/01/16 05:14:22;;;;;;;2.25;0.90;;;;;;;1.07;100.00;93874.22;5088406;28;24987;-71
2023/01/16 05:16:48;;;;;;;2.45;1.20;;;;;;;1.02;100.00;93874.47;5088537;28;24998;-72
2023/01/16 05:19:15;;;;;;;4.60;2.00;;;;;;;1.15;100.00;93860.13;5103265;28;24796;-72
2023/01/16 05:21:41;;;;;;;2.15;1.20;;;;;;;1.11;100.00;93848.47;5096440;28;24543;-72
2023/01/16 05:24:08;;;;;;;3.35;1.00;;;;;;;1.04;100.00;93844.63;5095642;28;24459;-73
2023/01/16 05:26:34;;;;;;;3.05;0.80;;;;;;;1.09;100.00;93839.25;5088173;28;24983;-72
2023/01/16 05:29:02;;;;;;;1.95;1.08;;;;;;;0.94;100.00;93818.84;5098168;28;24473;-72
2023/01/16 05:31:29;;;;;;;2.90;1.05;;;;;;;0.87;100.00;93814.16;5076509;28;24824;-72
2023/01/16 05:33:55;;;;;;;2.60;1.10;;;;;;;0.98;100.00;93814.38;5089641;28;24533;-72
2023/01/16 05:36:22;;;;;;;3.80;1.70;;;;;;;0.96;100.00;93800.88;5100757;27;25015;-72
2023/01/16 05:38:50;;;;;;;5.65;1.35;;;;;;;1.01;100.00;93787.91;5088906;28;24437;-72
2023/01/16 05:41:16;;;;;;;4.15;1.10;;;;;;;0.99;100.00;93790.53;5099011;28;24841;-72
2023/01/16 05:43:43;;;;;;;5.38;1.40;;;;;;;0.84;100.00;93786.31;5088331;28;24446;-71
2023/01/16 05:46:11;;;;;;;2.00;0.90;;;;;;;0.88;100.00;93773.28;5087729;28;24434;-72
2023/01/16 05:48:38;;;;;;;2.85;0.90;;;;;;;0.80;100.00;93772.09;5076653;28;24446;-72
2023/01/16 05:51:05;;;;;;;2.53;0.90;;;;;;;0.83;100.00;93756.63;5093196;28;25031;-71
2023/01/16 05:53:32;;;;;;;5.25;1.05;;;;;;;0.83;100.00;93757.47;5094316;28;24449;-71
2023/01/16 05:56:00;;;;;;;1.98;1.15;;;;;;;0.84;100.00;93742.97;5094343;28;24422;-72
2023/01/16 05:58:27;;;;;;;4.03;1.00;;;;;;;0.81;100.00;93750.78;5087046;28;24437;-73
2023/01/16 06:00:53;;;;;;;4.93;1.60;;;;;;;0.80;100.00;93728.78;5089771;28;24441;-73
2023/01/16 06:03:21;;;;;;;2.88;0.80;;;;;;;0.68;100.00;93715.84;5091892;27;24439;-73
2023/01/16 06:05:48;;;;;;;9.65;1.23;;;;;;;0.69;100.00;93709.00;5085875;28;24495;-73
2023/01/16 06:08:14;;;;;;;1.98;1.00;;;;;;;0.68;100.00;93700.56;5083204;28;24431;-76
2023/01/16 06:10:41;;;;;;;3.05;0.80;;;;;;;0.73;100.00;93702.81;5079081;28;24437;-76
2023/01/16 06:13:07;;;;;;;4.20;1.20;;;;;;;0.65;100.00;93690.53;5090213;28;24483;-76
2023/01/16 06:15:34;;;;;;;2.67;0.88;;;;;;;0.68;100.00;93684.44;5096841;28;24441;-76
2023/01/16 06:18:00;;;;;;;2.85;1.00;;;;;;;0.68;100.00;93677.63;5095581;28;24441;-73
2023/01/16 06:20:28;;;;;;;2.30;1.08;;;;;;;0.60;100.00;93667.06;5090871;28;24445;-73
2023/01/16 06:22:54;;;;;;;2.95;0.90;;;;;;;0.71;100.00;93669.81;5096818;28;24453;-73
2023/01/16 06:25:21;;;;;;;3.28;0.90;;;;;;;0.62;100.00;93659.31;5097952;28;24979;-73
2023/01/16 06:27:51;;;;;;;2.30;1.00;;;;;;;0.59;100.00;93644.22;5092402;28;24434;-74
2023/01/16 06:30:18;;;;;;;1.90;1.00;;;;;;;0.58;100.00;93638.28;5078515;28;25002;-74
2023/01/16 06:32:48;;;;;;;2.10;1.10;;;;;;;0.57;100.00;93634.13;5092363;28;24430;-75
2023/01/16 06:35:15;;;;;;;6.25;1.42;;;;;;;0.58;100.00;93627.28;5098245;28;24487;-72
2023/01/16 06:37:43;;;;;;;4.22;1.10;;;;;;;0.67;100.00;93622.50;5094042;28;24438;-75
2023/01/16 06:40:10;;;;;;;2.22;1.27;;;;;;;0.54;100.00;93620.75;5094350;28;24444;-75
2023/01/16 06:42:37;;;;;;;5.10;1.27;;;;;;;0.73;100.00;93611.91;5093714;28;24465;-74
2023/01/16 06:45:04;;;;;;;5.72;2.97;;;;;;;0.64;100.00;93611.66;5090884;28;24433;-76
2023/01/16 06:47:31;;;;;;;3.00;1.45;;;;;;;0.61;100.00;93610.09;5096275;28;24442;-75
2023/01/16 06:49:57;;;;;;;4.77;1.40;;;;;;;0.59;100.00;93608.53;5097592;28;24922;-72
2023/01/16 06:52:24;;;;;;;2.80;1.52;;;;;;;0.62;100.00;93591.34;5097901;28;24441;-72
2023/01/16 06:54:52;;;;;;;1.92;1.00;;;;;;;0.78;100.00;93590.44;5089597;28;24445;-71
2023/01/16 06:57:18;;;;;;;2.83;1.00;;;;;;;0.75;100.00;93583.81;5093025;28;24609;-72
2023/01/16 06:59:45;;;;;;;3.50;1.15;;;;;;;0.61;100.00;93576.19;5091577;28;24433;-73
2023/01/16 07:02:11;;;;;;;2.67;1.13;;;;;;;0.66;100.00;93574.97;5091338;28;25025;-72
2023/01/16 07:04:38;;;;;;;2.10;1.30;;;;;;;0.71;100.00;93565.34;5099352;28;24448;-75
2023/01/16 07:07:04;;;;;;;4.57;1.33;;;;;;;0.71;100.00;93562.00;5089951;28;24442;-74
2023/01/16 07:09:32;;;;;;;2.65;1.27;;;;;;;0.77;100.00;93566.69;5101674;28;24441;-74
2023/01/16 07:12:00;;;;;;;4.50;1.70;;;;;;;0.67;100.00;93563.91;5087693;28;24500;-74
2023/01/16 07:22:43;;;;;;;4.25;1.23;;;;;;;0.85;100.00;93544.13;5085272;28;24453;-76
2023/01/16 07:25:13;;;;;;;2.22;1.15;;;;;;;0.91;100.00;93536.09;5094940;28;24466;-73
2023/01/16 07:27:42;;;;;;;6.25;1.13;;;;;;;0.91;100.00;93531.00;5096180;28;24441;-73
2023/01/16 07:30:10;;;;;;;2.03;1.05;;;;;;;0.97;100.00;93527.28;5092516;28;24434;-74
2023/01/16 07:32:36;;;;;;;4.35;1.17;;;;;;;0.85;100.00;93517.81;5092443;28;24438;-75
2023/01/16 07:35:03;;;;;;;5.05;1.17;;;;;;;0.84;100.00;93514.47;5088871;28;24438;-74
2023/01/16 07:37:30;;;;;;;2.78;1.30;;;;;;;0.80;100.00;93510.47;5098990;28;24978;-71
2023/01/16 07:39:56;;;;;;;2.47;1.30;;;;;;;0.89;100.00;93509.06;5087188;28;24457;-72
2023/01/16 07:42:22;;;;;;;3.15;1.33;;;;;;;0.98;100.00;93497.50;5096332;28;24470;-74
2023/01/16 07:44:50;;;;;;;2.80;1.30;;;;;;;1.02;100.00;93499.78;5073833;28;24450;-73
2023/01/16 07:47:17;;;;;;;5.32;1.20;;;;;;;0.87;100.00;93490.53;5093977;28;24445;-71
2023/01/16 07:49:43;;;;;;;3.80;1.23;;;;;;;0.81;100.00;93483.25;5088380;28;24440;-71
2023/01/16 07:52:10;;;;;;;2.67;1.40;;;;;;;0.82;100.00;93474.72;5097191;28;24435;-71
2023/01/16 07:54:39;;;;;;;2.28;1.20;;;;;;;0.85;100.00;93482.16;5093989;28;24442;-71
2023/01/16 07:57:05;;;;;;;3.05;1.27;;;;;;;0.76;100.00;93469.97;5090278;28;24465;-72
2023/01/16 07:59:32;;;;;;;1.65;1.15;;;;;;;0.68;100.00;93473.81;5088197;28;24445;-72
2023/01/16 08:02:01;;;;;;;1.73;1.10;;;;;;;0.64;100.00;93462.19;5093538;28;24814;-72
2023/01/16 08:04:28;;;;;;;2.60;1.25;;;;;;;0.67;100.00;93458.63;5097845;28;24446;-72
2023/01/16 08:06:54;;;;;;;4.70;1.50;;;;;;;0.70;100.00;93443.97;5086262;28;24437;-72
2023/01/16 08:09:20;;;;;;;1.60;0.95;;;;;;;0.65;100.00;93445.97;5079818;28;24438;-71
2023/01/16 08:11:47;;;;;;;1.60;1.23;;;;;;;0.73;100.00;93436.13;5082741;28;25008;-72
2023/01/16 08:14:14;;;;;;;1.75;1.05;;;;;;;0.77;100.00;93429.13;5080362;28;24496;-72
2023/01/16 08:16:40;;;;;;;2.75;1.50;;;;;;;0.67;100.00;93416.16;5075535;28;24972;-71
2023/01/16 08:19:08;;;;;;;4.03;1.70;;;;;;;0.80;100.00;93415.38;5078911;28;24504;-71
2023/01/16 08:21:35;;;;;;;2.85;1.60;;;;;;;0.78;100.00;93412.09;5087909;28;24440;-71
2023/01/16 08:24:01;;;;;;;2.92;1.70;;;;;;;0.79;100.00;93406.09;5088531;28;24445;-71
2023/01/16 08:26:28;;;;;;;2.85;1.50;;;;;;;0.85;100.00;93408.25;5097758;28;24437;-71
2023/01/16 08:28:55;;;;;;;4.03;1.95;;;;;;;0.88;100.00;93402.97;5095559;28;24438;-71
2023/01/16 08:31:21;;;;;;;4.68;1.90;;;;;;;0.88;100.00;93400.41;5104747;28;25012;-71
2023/01/16 08:33:50;;;;;;;3.35;1.83;;;;;;;0.84;100.00;93396.44;5100208;28;24441;-71
2023/01/16 08:36:20;;;;;;;4.00;1.90;;;;;;;0.81;100.00;93394.06;5095690;28;24464;-71
2023/01/16 08:38:47;;;;;;;4.00;1.83;;;;;;;0.86;100.00;93402.25;5090546;28;24439;-71
2023/01/16 08:52:08;;;;;;;3.65;2.15;;;;;;;0.98;100.00;93416.78;5091545;28;24445;-72
2023/01/16 08:54:34;;;;;;;4.55;1.75;;;;;;;0.96;100.00;93419.44;5093258;28;24462;-74
2023/01/16 08:57:01;;;;;;;3.35;1.67;;;;;;;0.95;100.00;93414.41;5088751;28;24921;-73
2023/01/16 08:59:32;;;;;;;3.17;1.45;;;;;;;0.94;100.00;93407.69;5101356;28;24426;-73
2023/01/16 09:01:59;;;;;;;3.75;1.42;;;;;;;1.00;100.00;93402.19;5077805;28;24450;-73
2023/01/16 09:04:26;;;;;;;3.85;1.50;;;;;;;1.02;100.00;93394.44;5104238;28;24434;-74
2023/01/16 09:06:53;;;;;;;4.70;1.57;;;;;;;1.12;100.00;93388.66;5090073;28;24442;-73
2023/01/16 09:09:21;;;;;;;2.40;1.20;;;;;;;1.17;100.00;93386.63;5098659;28;24466;-72
2023/01/16 09:14:38;;;;;;;1.30;0.93;;;;;;;1.51;100.00;93381.06;5094771;28;24909;-73
2023/01/16 09:17:05;;;;;;;6.20;1.13;;;;;;;1.64;100.00;93381.91;5082481;28;24441;-73
2023/01/16 09:19:32;;;;;;;2.10;1.00;;;;;;;1.64;100.00;93377.63;5097961;28;24464;-73
2023/01/16 09:21:58;;;;;;;2.85;0.80;;;;;;;1.89;100.00;93370.84;5096254;28;24439;-73
2023/01/16 09:24:26;;;;;;;1.60;0.80;;;;;;;1.84;100.00;93358.41;5096901;28;24441;-74
2023/01/16 09:26:53;;;;;;;3.20;1.00;;;;;;;2.11;100.00;93352.34;5083994;28;24438;-73
2023/01/16 09:29:19;;;;;;;2.88;0.60;;;;;;;2.30;100.00;93339.97;5099656;28;24437;-72
2023/01/16 09:31:45;;;;;;;0.88;0.55;;;;;;;2.20;100.00;93327.94;5085120;28;24442;-73
2023/01/16 09:34:12;;;;;;;4.18;0.77;;;;;;;2.16;100.00;93320.50;5100224;28;24433;-73
2023/01/16 09:36:38;;;;;;;0.98;0.60;;;;;;;2.32;100.00;93324.53;5080277;28;24450;-74
2023/01/16 09:39:05;;;;;;;1.83;0.70;;;;;;;2.33;100.00;93310.81;5085656;28;24430;-74
2023/01/16 09:44:27;;;;;;;1.05;0.55;;;;;;;2.35;100.00;93314.09;5082635;28;25084;-72
2023/01/16 09:46:55;;;;;;;1.60;0.60;;;;;;;2.40;100.00;93319.69;5078816;28;25022;-72
2023/01/16 09:49:25;;;;;;;0.60;0.50;;;;;;;2.47;100.00;93326.00;5097151;28;24987;-75
2023/01/16 10:00:34;;;;;;;0.95;0.65;;;;;;;2.44;100.00;93300.66;5088756;28;24441;-72
2023/01/16 10:03:01;;;;;;;2.03;0.98;;;;;;;2.57;100.00;93305.75;5099387;28;25018;-73
2023/01/16 10:05:37;;;;;;;1.67;0.77;;;;;;;2.49;100.00;93285.03;5100513;28;24459;-72
2023/01/16 10:08:11;;;;;;;1.80;0.50;;;;;;;2.76;100.00;93287.34;5093636;28;24438;-72
2023/01/16 10:10:45;;;;;;;1.95;0.45;;;;;;;2.63;99.74;93292.50;5087037;28;24800;-72
2023/01/16 10:13:26;;;;;;;0.90;0.50;;;;;;;2.69;99.69;93286.97;5101203;28;24442;-72
2023/01/16 10:16:02;;;;;;;1.17;0.60;;;;;;;2.63;99.69;93284.84;5095119;28;24441;-72
2023/01/16 10:18:42;;;;;;;1.20;0.60;;;;;;;2.73;98.36;93278.16;5089172;28;24960;-72
2023/01/16 10:21:37;;;;;;;2.70;0.60;;;;;;;2.81;97.51;93270.72;5095524;28;24447;-73
2023/01/16 10:24:17;;;;;;;1.10;0.50;;;;;;;2.81;96.68;93277.59;5085907;28;24486;-74
2023/01/16 10:26:56;;;;;;;1.17;0.57;;;;;;;2.66;97.60;93262.44;5096355;28;24441;-73
2023/01/16 10:29:30;;;;;;;0.90;0.43;;;;;;;2.66;97.93;93259.88;5078890;28;24986;-73
2023/01/16 10:32:03;;;;;;;0.70;0.40;;;;;;;2.84;95.31;93249.25;5097773;28;24443;-72
2023/01/16 10:34:35;;;;;;;1.23;0.50;;;;;;;2.77;95.86;93253.19;5096400;28;24963;-73
2023/01/16 10:37:03;;;;;;;1.50;0.57;;;;;;;2.73;95.13;93252.59;5092603;28;24441;-72
2023/01/16 10:39:32;;;;;;;1.10;0.50;;;;;;;2.84;94.57;93244.97;5096029;28;24442;-73
2023/01/16 10:50:29;;;;;;;1.05;0.40;;;;;;;2.78;95.86;93227.53;5086606;28;25033;-72
2023/01/16 10:52:56;;;;;;;1.05;0.43;;;;;;;2.70;97.95;93227.25;5093659;28;24796;-73
2023/01/16 10:55:23;;;;;;;2.30;0.90;;;;;;;2.70;98.34;93223.88;5090915;28;24483;-72
2023/01/16 10:57:52;;;;;;;1.20;0.60;;;;;;;2.69;100.00;93215.41;5072399;28;24534;-72
2023/01/16 11:00:25;;;;;;;1.20;0.73;;;;;;;2.76;99.78;93215.78;5105199;28;24453;-73
2023/01/16 11:02:53;;;;;;;1.70;0.70;;;;;;;2.69;100.00;93207.75;5092461;28;24470;-73
2023/01/16 11:05:24;;;;;;;2.33;0.70;;;;;;;2.71;100.00;93203.34;5099874;28;24499;-72
2023/01/16 11:07:53;;;;;;;1.15;0.50;;;;;;;2.73;100.00;93186.16;5092625;28;24441;-72
2023/01/16 11:10:21;;;;;;;3.50;0.60;;;;;;;2.70;100.00;93180.44;5076301;28;25003;-72
2023/01/16 11:18:28;;;;;;;1.10;0.60;;;;;;;2.56;100.00;93169.50;5098185;28;24436;-72
2023/01/16 11:20:57;;;;;;;1.77;0.90;;;;;;;2.59;100.00;93158.22;5092358;28;24438;-73
2023/01/16 11:23:25;;;;;;;1.10;0.75;;;;;;;2.56;100.00;93151.63;5090754;28;24842;-73
2023/01/16 11:25:57;;;;;;;1.20;0.80;;;;;;;2.69;100.00;93140.50;5099154;28;24442;-73
2023/01/16 11:28:27;;;;;;;1.35;0.68;;;;;;;2.59;100.00;93136.03;5076977;28;24438;-72
2023/01/16 11:30:58;;;;;;;3.97;2.10;;;;;;;2.73;100.00;93129.91;5094758;28;24437;-73
2023/01/16 11:33:28;;;;;;;1.30;1.00;;;;;;;2.69;100.00;93128.53;5081288;28;24441;-72
2023/01/16 11:35:57;;;;;;;1.35;0.70;;;;;;;2.65;100.00;93112.59;5087976;28;24496;-72
2023/01/16 11:38:24;;;;;;;1.05;0.70;;;;;;;2.75;100.00;93107.63;5083382;28;24435;-72
2023/01/16 11:40:53;;;;;;;2.13;1.48;;;;;;;2.62;100.00;93107.72;5070330;28;24805;-72
2023/01/16 11:46:32;;;;;;;1.40;0.80;;;;;;;2.82;100.00;93090.09;5089061;28;24438;-72
2023/01/16 11:49:01;;;;;;;0.98;0.75;;;;;;;3.01;100.00;93086.94;5097355;28;24434;-73
2023/01/16 11:51:30;;;;;;;1.73;0.80;;;;;;;2.78;100.00;93068.22;5090322;28;25056;-73
2023/01/16 11:53:58;;;;;;;6.80;1.00;;;;;;;2.77;100.00;93066.59;5094965;28;24445;-71
2023/01/16 11:56:41;;;;;;;1.08;0.52;;;;;;;2.63;100.00;93053.16;5088986;28;24440;-71
2023/01/16 11:59:23;;;;;;;1.35;0.60;;;;;;;2.62;100.00;93050.69;5088653;28;24437;-72
2023/01/16 12:02:18;;;;;;;1.15;0.73;;;;;;;2.80;100.00;93044.19;5071595;28;24527;-75
2023/01/16 12:05:53;;;;;;;3.17;0.85;;;;;;;2.66;100.00;93031.63;5059143;28;24458;-72
2023/01/16 12:07:46;;;;;;;1.50;0.90;;;;;;;2.73;100.00;93035.34;5068860;28;24423;-72
2023/01/16 12:10:23;;;;;;;1.33;0.77;;;;;;;2.64;100.00;93020.75;5052932;28;24531;-73
2023/01/16 12:15:50;;;;;;;1.02;0.70;;;;;;;2.76;100.00;93009.56;5056142;28;25042;-73
2023/01/16 12:18:26;;;;;;;1.45;0.90;;;;;;;2.74;100.00;92992.72;5067415;28;24496;-73
2023/01/16 12:20:59;;;;;;;2.60;0.93;;;;;;;2.73;100.00;92986.81;5052377;28;24443;-75
2023/01/16 12:23:45;;;;;;;1.20;0.73;;;;;;;2.72;100.00;92989.47;5064457;28;24454;-74
2023/01/16 12:26:21;;;;;;;1.77;0.67;;;;;;;2.70;100.00;92983.66;5081791;28;25068;-72
2023/01/16 12:29:03;;;;;;;1.85;0.73;;;;;;;2.95;100.00;92980.03;5062364;28;24458;-72
2023/01/16 12:31:57;;;;;;;1.80;0.80;;;;;;;2.85;100.00;92965.41;5068587;28;24880;-72
2023/01/16 12:34:48;;;;;;;1.60;0.65;;;;;;;2.97;100.00;92967.97;5056943;28;24434;-74
2023/01/16 12:37:30;;;;;;;1.77;0.70;;;;;;;2.94;100.00;92956.22;5072993;28;24446;-74
2023/01/16 12:40:13;;;;;;;2.33;0.88;;;;;;;3.07;100.00;92959.44;5069556;28;24445;-74
2023/01/16 12:45:45;;;;;;;1.67;1.17;;;;;;;3.02;100.00;92942.84;5074661;28;24829;-73